Decoded Metar for LYNI (NIS in SERBIA) (IATA:INI) | Meteo·Mobile Aviation Weather
aviador You're here:

LYNI Decoded Metar

NIS in SERBIA
Report Time2019-03-20 00:30:00
UTC Time2019-03-20 01:02:33
Flight Rules vfr VFR
Wind320° at 16 kt
W.Decomp.*RWY 29: 14.3 kt HW 7.3 kt RCW
W.Rank320° ranks 1
Current wind is above 320° avg. (10.6)
Visibility9999 m
Phenomena:N/A
Clouds:N/A
Expected CloudBase > 2,800 ft AGL from Temp-Dew spread
CeilingNone
Temp08°C (ISA -6)
Dew Point01°C (62% RH)
AAT0.4°C
QNH1025 hPa
Density Alt-331 ft
Elevation663 ft
Report Wrong Elevation
Raw Report
LYNI 200030Z 32016KT CAVOK 08/01 Q1025 NOSIG=

Extra information for LYNI:More info

Metar Taf Metar & Taf Last 4 Metars F.Rules Stats Wind Profile Meteogram Temp Stats Airport Information Weather charts Add Link Nearby VenuesMetar ALERT Operation Metar Decoded Social comments